createdAt,value
2018-06-09T00:00:06.076Z,15.70
2018-06-09T00:02:39.341Z,15.80
2018-06-09T00:05:12.018Z,16.10
2018-06-09T00:07:44.738Z,16.30
2018-06-09T00:10:17.443Z,16.40
2018-06-09T00:12:50.552Z,16.30
2018-06-09T00:15:23.307Z,16.40
2018-06-09T00:17:55.680Z,16.60
2018-06-09T00:20:29.132Z,16.70
2018-06-09T00:23:01.616Z,16.90
2018-06-09T00:25:34.380Z,16.90
2018-06-09T00:28:07.128Z,17.00
2018-06-09T00:30:40.164Z,17.00
2018-06-09T00:33:12.749Z,17.00
2018-06-09T00:35:45.329Z,16.90
2018-06-09T00:38:18.035Z,16.60
2018-06-09T00:40:50.748Z,16.50
2018-06-09T00:43:23.937Z,16.40
2018-06-09T00:45:56.886Z,16.40
2018-06-09T00:48:30.572Z,16.70
2018-06-09T00:51:03.008Z,16.70
2018-06-09T00:53:35.754Z,16.50
2018-06-09T00:56:17.478Z,16.50
2018-06-09T00:58:50.434Z,16.40
2018-06-09T01:03:54.985Z,16.30
2018-06-09T01:08:59.424Z,16.20
2018-06-09T01:11:32.528Z,16.20
2018-06-09T01:14:05.567Z,16.20
2018-06-09T01:16:39.804Z,16.20
2018-06-09T01:21:44.447Z,16.20
2018-06-09T01:24:16.939Z,16.10
2018-06-09T01:26:49.907Z,16.00
2018-06-09T01:29:22.769Z,16.10
2018-06-09T01:31:55.424Z,16.10
2018-06-09T01:34:27.861Z,16.00
2018-06-09T01:37:00.475Z,16.00
2018-06-09T01:39:32.921Z,15.80
2018-06-09T01:42:05.564Z,15.80
2018-06-09T01:44:38.112Z,15.80
2018-06-09T01:47:10.771Z,15.80
2018-06-09T01:49:43.398Z,15.80
2018-06-09T01:54:47.837Z,15.80
2018-06-09T01:57:20.372Z,15.80
2018-06-09T01:59:52.657Z,15.70
2018-06-09T02:02:25.326Z,15.70
2018-06-09T02:04:58.057Z,15.70
2018-06-09T02:07:30.823Z,15.80
2018-06-09T02:12:35.564Z,15.80
2018-06-09T02:15:09.061Z,15.70
2018-06-09T02:17:42.633Z,15.70
2018-06-09T02:20:15.924Z,15.60
2018-06-09T02:22:48.408Z,15.60
2018-06-09T02:27:53.326Z,15.60
2018-06-09T02:30:25.745Z,15.60
2018-06-09T02:35:30.351Z,15.60
2018-06-09T02:38:02.989Z,15.60
2018-06-09T02:40:35.718Z,15.60
2018-06-09T02:43:08.905Z,15.60
2018-06-09T02:45:41.971Z,15.50
2018-06-09T02:48:14.844Z,15.50
2018-06-09T02:50:47.189Z,15.40
2018-06-09T02:53:20.561Z,15.40
2018-06-09T02:55:52.966Z,15.50
2018-06-09T02:58:26.129Z,15.40
2018-06-09T03:00:58.924Z,15.40
2018-06-09T03:03:31.573Z,15.30
2018-06-09T03:06:05.045Z,15.20
2018-06-09T03:08:38.062Z,15.20
2018-06-09T03:11:11.104Z,15.20
2018-06-09T03:13:44.013Z,15.20
2018-06-09T03:16:16.501Z,15.20
2018-06-09T03:18:49.420Z,15.20
2018-06-09T03:21:22.144Z,15.10
2018-06-09T03:23:55.015Z,15.00
2018-06-09T03:26:27.783Z,15.00
2018-06-09T03:29:01.047Z,15.00
2018-06-09T03:31:33.879Z,15.00
2018-06-09T03:34:06.993Z,15.10
2018-06-09T03:36:40.311Z,15.00
2018-06-09T03:39:13.300Z,15.00
2018-06-09T03:41:46.375Z,15.00
2018-06-09T03:44:19.309Z,15.00
2018-06-09T03:46:51.880Z,15.00
2018-06-09T03:49:24.219Z,15.10
2018-06-09T03:51:56.688Z,15.10
2018-06-09T03:54:29.257Z,15.10
2018-06-09T03:57:01.869Z,15.00
2018-06-09T03:59:36.127Z,15.00
2018-06-09T04:02:08.599Z,15.00
2018-06-09T04:04:41.269Z,15.00
2018-06-09T04:07:13.675Z,14.90
2018-06-09T04:12:19.511Z,14.90
2018-06-09T04:14:52.545Z,14.90
2018-06-09T04:17:25.511Z,14.80
2018-06-09T04:19:58.712Z,14.80
2018-06-09T04:22:31.481Z,14.80
2018-06-09T04:25:04.361Z,14.80
2018-06-09T04:27:37.728Z,14.70
2018-06-09T04:30:10.593Z,14.80
2018-06-09T04:32:43.928Z,14.80
2018-06-09T04:35:16.750Z,14.70
2018-06-09T04:37:49.385Z,14.60
2018-06-09T04:40:22.107Z,14.60
2018-06-09T04:42:54.770Z,14.60
2018-06-09T04:45:27.166Z,14.60
2018-06-09T04:47:59.914Z,14.60
2018-06-09T04:50:32.685Z,14.60
2018-06-09T04:55:36.933Z,14.60
2018-06-09T04:58:09.622Z,14.60
2018-06-09T05:00:42.632Z,14.50
2018-06-09T05:03:15.415Z,14.50
2018-06-09T05:05:49.008Z,14.50
2018-06-09T05:08:21.713Z,14.50
2018-06-09T05:10:55.647Z,14.50
2018-06-09T05:13:28.209Z,14.60
2018-06-09T05:16:01.261Z,14.60
2018-06-09T05:18:34.460Z,14.60
2018-06-09T05:21:07.619Z,14.50
2018-06-09T05:23:40.344Z,14.50
2018-06-09T05:26:17.117Z,14.50
2018-06-09T05:28:50.030Z,14.50
2018-06-09T05:31:23.204Z,14.40
2018-06-09T05:33:56.924Z,14.50
2018-06-09T05:36:29.748Z,14.60
2018-06-09T05:39:02.814Z,14.50
2018-06-09T05:41:35.659Z,14.50
2018-06-09T05:44:08.661Z,14.50
2018-06-09T05:46:40.824Z,14.40
2018-06-09T05:49:13.708Z,14.50
2018-06-09T05:51:46.593Z,14.50
2018-06-09T05:54:19.310Z,14.50
2018-06-09T05:56:51.885Z,14.50
2018-06-09T05:59:25.206Z,14.50
2018-06-09T06:01:58.835Z,14.50
2018-06-09T06:07:03.572Z,14.50
2018-06-09T06:09:36.045Z,14.40
2018-06-09T06:12:08.433Z,14.50
2018-06-09T06:14:40.853Z,14.40
2018-06-09T06:17:13.502Z,14.40
2018-06-09T06:19:46.518Z,14.40
2018-06-09T06:22:19.231Z,14.30
2018-06-09T06:24:52.457Z,14.30
2018-06-09T06:27:24.949Z,14.20
2018-06-09T06:29:57.787Z,14.20
2018-06-09T06:35:02.841Z,14.10
2018-06-09T06:37:36.003Z,14.00
2018-06-09T06:40:08.983Z,14.00
2018-06-09T06:42:41.741Z,14.00
2018-06-09T06:45:14.515Z,14.00
2018-06-09T06:47:47.573Z,14.00
2018-06-09T06:50:20.190Z,14.10
2018-06-09T06:52:53.004Z,14.10
2018-06-09T06:55:25.757Z,14.00
2018-06-09T06:57:58.096Z,14.00
2018-06-09T07:00:31.617Z,14.00
2018-06-09T07:03:04.189Z,14.00
2018-06-09T07:05:37.572Z,14.10
2018-06-09T07:08:10.485Z,14.00
2018-06-09T07:10:43.328Z,14.00
2018-06-09T07:13:16.178Z,13.80
2018-06-09T07:15:49.149Z,13.70
2018-06-09T07:18:21.776Z,13.70
2018-06-09T07:20:56.194Z,13.70
2018-06-09T07:23:29.100Z,13.60
2018-06-09T07:26:01.945Z,13.60
2018-06-09T07:28:35.835Z,13.60
2018-06-09T07:31:08.942Z,13.60
2018-06-09T07:33:41.912Z,13.60
2018-06-09T07:36:14.965Z,13.60
2018-06-09T07:38:47.545Z,13.70
2018-06-09T07:41:20.174Z,13.70
2018-06-09T07:43:52.882Z,13.60
2018-06-09T07:46:25.867Z,13.60
2018-06-09T07:48:58.446Z,13.50
2018-06-09T07:51:31.405Z,13.40
2018-06-09T07:54:04.432Z,13.30
2018-06-09T07:56:37.141Z,13.20
2018-06-09T07:59:10.084Z,13.30
2018-06-09T08:01:43.096Z,13.30
2018-06-09T08:04:16.911Z,13.30
2018-06-09T08:06:49.852Z,13.40
2018-06-09T08:09:22.321Z,13.30
2018-06-09T08:11:55.465Z,13.30
2018-06-09T08:14:28.485Z,13.30
2018-06-09T08:17:01.493Z,13.50
2018-06-09T08:19:34.292Z,13.30
2018-06-09T08:22:06.976Z,13.20
2018-06-09T08:24:39.630Z,13.10
2018-06-09T08:27:12.420Z,13.10
2018-06-09T08:29:45.642Z,13.00
2018-06-09T08:32:17.936Z,12.90
2018-06-09T08:34:50.943Z,12.90
2018-06-09T08:37:23.957Z,12.90
2018-06-09T08:39:56.868Z,12.90
2018-06-09T08:42:29.837Z,12.90
2018-06-09T08:45:03.183Z,12.90
2018-06-09T08:47:35.758Z,12.90
2018-06-09T08:50:08.252Z,12.90
2018-06-09T08:52:40.756Z,12.90
2018-06-09T08:55:13.817Z,12.90
2018-06-09T08:57:47.170Z,12.90
2018-06-09T09:00:19.664Z,12.70
2018-06-09T09:02:52.296Z,12.80
2018-06-09T09:05:25.766Z,12.70
2018-06-09T09:07:58.864Z,12.70
2018-06-09T09:10:32.163Z,12.70
2018-06-09T09:13:04.980Z,12.50
2018-06-09T09:15:37.606Z,12.60
2018-06-09T09:18:10.570Z,12.60
2018-06-09T09:20:43.068Z,12.60
2018-06-09T09:23:15.512Z,12.70
2018-06-09T09:25:48.445Z,12.70
2018-06-09T09:28:20.820Z,12.80
2018-06-09T09:30:53.583Z,12.90
2018-06-09T09:33:26.242Z,12.90
2018-06-09T09:35:59.335Z,12.90
2018-06-09T09:38:31.947Z,12.90
2018-06-09T09:41:05.115Z,12.90
2018-06-09T09:43:37.607Z,12.90
2018-06-09T09:46:10.331Z,12.90
2018-06-09T09:48:43.178Z,12.90
2018-06-09T09:51:15.760Z,12.90
2018-06-09T09:53:48.072Z,12.90
2018-06-09T09:56:20.852Z,12.80
2018-06-09T09:58:53.598Z,12.70
2018-06-09T10:01:26.030Z,12.70
2018-06-09T10:03:58.539Z,12.70
2018-06-09T10:06:31.333Z,12.60
2018-06-09T10:09:04.439Z,12.70
2018-06-09T10:11:36.988Z,12.80
2018-06-09T10:14:09.787Z,12.80
2018-06-09T10:16:42.993Z,12.70
2018-06-09T10:21:47.344Z,12.60
2018-06-09T10:24:21.197Z,12.60
2018-06-09T10:26:53.968Z,12.70
2018-06-09T10:29:26.227Z,12.90
2018-06-09T10:31:59.192Z,12.80
2018-06-09T10:34:31.932Z,12.80
2018-06-09T10:37:05.241Z,12.80
2018-06-09T10:39:37.685Z,12.80
2018-06-09T10:42:10.746Z,12.70
2018-06-09T10:44:43.317Z,12.60
2018-06-09T10:47:15.927Z,12.60
2018-06-09T10:49:48.974Z,12.60
2018-06-09T10:52:21.862Z,12.60
2018-06-09T10:54:54.541Z,12.60
2018-06-09T10:57:27.209Z,12.60
2018-06-09T11:00:00.522Z,12.50
2018-06-09T11:02:33.139Z,12.40
2018-06-09T11:05:06.213Z,12.40
2018-06-09T11:07:38.733Z,12.40
2018-06-09T11:10:11.442Z,12.30
2018-06-09T11:12:44.210Z,12.30
2018-06-09T11:15:17.168Z,12.30
2018-06-09T11:17:49.778Z,12.20
2018-06-09T11:20:23.011Z,12.20
2018-06-09T11:22:55.582Z,12.10
2018-06-09T11:25:29.238Z,12.20
2018-06-09T11:28:02.045Z,12.20
2018-06-09T11:30:35.576Z,12.30
2018-06-09T11:33:09.017Z,12.30
2018-06-09T11:35:41.777Z,12.30
2018-06-09T11:38:14.634Z,12.30
2018-06-09T11:40:47.624Z,12.30
2018-06-09T11:43:20.036Z,12.30
2018-06-09T11:45:52.734Z,12.30
2018-06-09T11:48:25.800Z,12.20
2018-06-09T11:50:58.217Z,12.20
2018-06-09T11:53:31.181Z,12.20
2018-06-09T11:56:03.957Z,12.20
2018-06-09T11:58:37.132Z,12.20
2018-06-09T12:01:09.862Z,12.30
2018-06-09T12:03:42.739Z,12.20
2018-06-09T12:06:15.831Z,12.00
2018-06-09T12:08:49.462Z,12.10
2018-06-09T12:11:22.080Z,12.00
2018-06-09T12:13:54.701Z,12.00
2018-06-09T12:16:27.621Z,11.90
2018-06-09T12:19:00.560Z,11.80
2018-06-09T12:21:33.311Z,11.70
2018-06-09T12:24:06.184Z,11.70
2018-06-09T12:26:39.778Z,11.90
2018-06-09T12:29:12.480Z,11.60
2018-06-09T12:31:45.257Z,11.60
2018-06-09T12:34:18.619Z,11.70
2018-06-09T12:36:51.621Z,11.60
2018-06-09T12:39:25.050Z,11.80
2018-06-09T12:41:57.805Z,11.60
2018-06-09T12:44:30.407Z,11.80
2018-06-09T12:47:02.926Z,11.60
2018-06-09T12:49:35.619Z,11.70
2018-06-09T12:52:08.136Z,11.80
2018-06-09T12:54:40.987Z,11.80
2018-06-09T12:57:13.856Z,11.80
2018-06-09T12:59:46.301Z,11.70
2018-06-09T13:02:19.588Z,11.70
2018-06-09T13:04:52.173Z,11.80
2018-06-09T13:07:24.748Z,11.90
2018-06-09T13:09:57.262Z,11.90
2018-06-09T13:12:30.046Z,11.90
2018-06-09T13:15:02.350Z,12.00
2018-06-09T13:17:35.185Z,12.00
2018-06-09T13:20:07.489Z,12.10
2018-06-09T13:22:40.221Z,12.10
2018-06-09T13:25:12.573Z,12.20
2018-06-09T13:27:45.847Z,12.10
2018-06-09T13:32:49.884Z,12.30
2018-06-09T13:35:22.636Z,12.20
2018-06-09T13:37:55.521Z,12.20
2018-06-09T13:40:28.053Z,12.20
2018-06-09T13:43:00.593Z,12.20
2018-06-09T13:45:33.017Z,12.30
2018-06-09T13:48:05.488Z,12.40
2018-06-09T13:50:38.085Z,12.40
2018-06-09T13:53:10.696Z,12.50
2018-06-09T13:58:14.371Z,12.70
2018-06-09T14:00:47.007Z,12.80
2018-06-09T14:08:22.565Z,13.10
2018-06-09T14:10:55.146Z,13.20
2018-06-09T14:15:59.457Z,13.40
2018-06-09T14:18:33.213Z,13.40
2018-06-09T14:21:05.762Z,13.40
2018-06-09T14:23:38.009Z,13.20
2018-06-09T14:26:10.718Z,13.10
2018-06-09T14:28:44.509Z,13.00
2018-06-09T14:31:17.353Z,13.00
2018-06-09T14:33:50.061Z,12.90
2018-06-09T14:36:23.392Z,12.60
2018-06-09T14:38:56.069Z,12.50
2018-06-09T14:41:29.080Z,12.50
2018-06-09T14:44:02.070Z,12.50
2018-06-09T14:46:34.835Z,12.50
2018-06-09T14:49:07.747Z,12.70
2018-06-09T14:51:40.385Z,12.80
2018-06-09T14:54:13.089Z,12.80
2018-06-09T14:56:45.971Z,12.80
2018-06-09T14:59:18.605Z,12.80
2018-06-09T15:01:51.189Z,12.80
2018-06-09T15:04:23.902Z,12.80
2018-06-09T15:06:56.413Z,12.60
2018-06-09T15:09:29.336Z,12.70
2018-06-09T15:12:01.929Z,12.80
2018-06-09T15:14:34.901Z,12.90
2018-06-09T15:17:07.489Z,12.90
2018-06-09T15:19:40.165Z,12.90
2018-06-09T15:22:12.728Z,12.80
2018-06-09T15:24:45.352Z,12.70
2018-06-09T15:27:18.257Z,12.60
2018-06-09T15:29:52.146Z,12.50
2018-06-09T15:32:25.069Z,12.70
2018-06-09T15:34:57.382Z,12.50
2018-06-09T15:37:29.836Z,12.80
2018-06-09T15:40:03.163Z,12.70
2018-06-09T15:42:35.628Z,12.70
2018-06-09T15:45:08.734Z,12.80
2018-06-09T15:47:41.442Z,12.90
2018-06-09T15:52:45.989Z,12.80
2018-06-09T15:55:18.642Z,12.80
2018-06-09T15:57:51.402Z,12.90
2018-06-09T16:00:24.365Z,13.00
2018-06-09T16:02:56.634Z,13.20
2018-06-09T16:05:29.601Z,13.50
2018-06-09T16:08:02.389Z,13.60
2018-06-09T16:10:35.335Z,13.80
2018-06-09T16:13:08.014Z,14.00
2018-06-09T16:18:12.077Z,14.10
2018-06-09T16:20:45.164Z,13.90
2018-06-09T16:23:17.497Z,13.80
2018-06-09T16:28:22.230Z,13.60
2018-06-09T16:30:55.984Z,14.20
2018-06-09T16:33:28.924Z,15.70
2018-06-09T16:36:02.409Z,17.40
2018-06-09T16:38:35.205Z,18.90
2018-06-09T16:41:08.373Z,19.10
2018-06-09T16:43:41.656Z,19.60
2018-06-09T16:46:14.656Z,20.30
2018-06-09T16:48:47.317Z,20.90
2018-06-09T16:51:19.922Z,21.00
2018-06-09T16:53:52.713Z,20.00
2018-06-09T16:58:56.837Z,18.90
2018-06-09T17:01:30.418Z,18.80
2018-06-09T17:04:03.115Z,18.70
2018-06-09T17:06:35.768Z,18.30
2018-06-09T17:09:10.735Z,17.10
2018-06-09T17:11:44.431Z,16.70
2018-06-09T17:14:17.181Z,16.70
2018-06-09T17:16:49.761Z,16.40
2018-06-09T17:19:23.114Z,15.60
2018-06-09T17:21:56.817Z,15.20
2018-06-09T17:24:29.812Z,14.80
2018-06-09T17:27:02.518Z,14.70
2018-06-09T17:29:35.541Z,14.70
2018-06-09T17:32:09.944Z,14.80
2018-06-09T17:34:42.661Z,14.80
2018-06-09T17:37:15.529Z,14.80
2018-06-09T17:39:48.345Z,14.60
2018-06-09T17:42:20.714Z,14.40
2018-06-09T17:44:53.476Z,14.30
2018-06-09T17:47:26.187Z,14.30
2018-06-09T17:49:59.460Z,14.40
2018-06-09T17:52:32.220Z,14.40
2018-06-09T17:55:05.227Z,14.90
2018-06-09T17:57:37.805Z,15.20
2018-06-09T18:00:10.552Z,15.70
2018-06-09T18:02:43.728Z,15.70
2018-06-09T18:05:16.240Z,15.60
2018-06-09T18:07:48.934Z,15.80
2018-06-09T18:10:21.392Z,16.10
2018-06-09T18:12:54.198Z,15.60
2018-06-09T18:15:26.891Z,15.40
2018-06-09T18:18:00.157Z,15.00
2018-06-09T18:20:32.973Z,14.80
2018-06-09T18:23:06.143Z,14.60
2018-06-09T18:25:38.763Z,14.80
2018-06-09T18:28:11.748Z,15.10
2018-06-09T18:33:17.154Z,16.20
2018-06-09T18:35:50.232Z,16.90
2018-06-09T18:38:22.556Z,17.30
2018-06-09T18:40:55.193Z,18.70
2018-06-09T18:43:27.911Z,19.10
2018-06-09T18:46:01.071Z,18.80
2018-06-09T18:48:33.683Z,18.40
2018-06-09T18:51:06.335Z,18.20
2018-06-09T18:53:39.198Z,18.70
2018-06-09T18:56:12.190Z,19.30
2018-06-09T18:58:45.494Z,19.70
2018-06-09T19:01:18.390Z,19.80
2018-06-09T19:03:51.097Z,19.50
2018-06-09T19:06:23.740Z,18.70
2018-06-09T19:08:56.547Z,18.50
2018-06-09T19:11:29.091Z,18.40
2018-06-09T19:14:02.525Z,18.90
2018-06-09T19:16:37.067Z,19.70
2018-06-09T19:19:10.244Z,20.80
2018-06-09T19:21:42.900Z,21.50
2018-06-09T19:24:15.895Z,21.90
2018-06-09T19:26:49.169Z,22.40
2018-06-09T19:29:22.354Z,22.60
2018-06-09T19:31:54.839Z,22.80
2018-06-09T19:34:29.147Z,22.60
2018-06-09T19:37:02.315Z,23.00
2018-06-09T19:39:35.062Z,23.40
2018-06-09T19:42:07.424Z,23.10
2018-06-09T19:47:12.264Z,21.40
2018-06-09T19:49:45.175Z,20.90
2018-06-09T19:52:18.192Z,20.40
2018-06-09T19:54:51.085Z,19.20
2018-06-09T19:57:24.010Z,18.40
2018-06-09T19:59:56.808Z,17.30
2018-06-09T20:02:29.148Z,16.40
2018-06-09T20:05:02.188Z,16.10
2018-06-09T20:07:34.815Z,15.80
2018-06-09T20:10:07.472Z,15.60
2018-06-09T20:12:40.800Z,15.30
2018-06-09T20:15:13.483Z,15.40
2018-06-09T20:17:47.492Z,15.50
2018-06-09T20:20:20.296Z,15.70
2018-06-09T20:22:52.924Z,15.90
2018-06-09T20:25:26.005Z,16.00
2018-06-09T20:27:58.387Z,15.80
2018-06-09T20:30:31.031Z,16.00
2018-06-09T20:33:03.510Z,15.90
2018-06-09T20:35:37.385Z,16.00
2018-06-09T20:38:10.602Z,16.30
2018-06-09T20:40:43.465Z,16.50
2018-06-09T20:43:17.048Z,16.40
2018-06-09T20:45:49.764Z,16.20
2018-06-09T20:48:24.260Z,16.00
2018-06-09T20:50:56.790Z,16.00
2018-06-09T20:53:29.296Z,16.10
2018-06-09T20:56:02.589Z,16.40
2018-06-09T20:58:40.078Z,16.80
2018-06-09T21:01:12.835Z,17.30
2018-06-09T21:03:45.795Z,17.50
2018-06-09T21:06:18.493Z,17.60
2018-06-09T21:08:51.584Z,17.30
2018-06-09T21:11:24.800Z,17.00
2018-06-09T21:13:57.476Z,16.80
2018-06-09T21:16:30.483Z,17.00
2018-06-09T21:19:03.324Z,17.10
2018-06-09T21:21:36.257Z,17.10
2018-06-09T21:24:09.144Z,17.10
2018-06-09T21:26:48.604Z,17.40
2018-06-09T21:29:26.423Z,17.40
2018-06-09T21:32:02.722Z,17.40
2018-06-09T21:34:48.778Z,17.40
2018-06-09T21:37:25.604Z,17.30
2018-06-09T21:40:06.081Z,17.20
2018-06-09T21:42:42.489Z,17.20
2018-06-09T21:45:19.769Z,16.90
2018-06-09T21:47:52.476Z,16.90
2018-06-09T21:52:57.516Z,16.70
2018-06-09T21:55:30.031Z,16.60
2018-06-09T21:58:02.834Z,16.80
2018-06-09T22:00:35.731Z,16.90
2018-06-09T22:03:08.930Z,17.00
2018-06-09T22:05:42.295Z,17.10
2018-06-09T22:08:15.612Z,16.90
2018-06-09T22:10:48.443Z,17.20
2018-06-09T22:13:21.521Z,17.40
2018-06-09T22:15:54.193Z,17.30
2018-06-09T22:18:27.297Z,17.30
2018-06-09T22:21:00.134Z,17.50
2018-06-09T22:23:33.754Z,17.30
2018-06-09T22:26:11.061Z,17.70
2018-06-09T22:28:43.740Z,17.50
2018-06-09T22:31:17.427Z,17.70
2018-06-09T22:33:49.807Z,17.70
2018-06-09T22:36:22.686Z,17.80
2018-06-09T22:41:26.893Z,16.90
2018-06-09T22:43:59.734Z,16.90
2018-06-09T22:46:32.400Z,16.50
2018-06-09T22:49:05.229Z,16.10
2018-06-09T22:54:10.140Z,15.20
2018-06-09T22:56:42.620Z,14.50
2018-06-09T22:59:15.397Z,14.30
2018-06-09T23:01:48.340Z,13.80
2018-06-09T23:04:20.957Z,13.60
2018-06-09T23:06:53.534Z,13.20
2018-06-09T23:09:26.334Z,12.80
2018-06-09T23:11:59.009Z,12.50
2018-06-09T23:14:31.484Z,12.20
2018-06-09T23:17:04.729Z,11.90
2018-06-09T23:19:37.972Z,11.90
2018-06-09T23:22:10.677Z,12.00
2018-06-09T23:24:44.082Z,12.10
2018-06-09T23:27:16.897Z,12.00
2018-06-09T23:29:50.033Z,11.90
2018-06-09T23:32:22.789Z,11.80
2018-06-09T23:34:57.919Z,11.70
2018-06-09T23:37:30.911Z,11.50
2018-06-09T23:40:04.472Z,11.40
2018-06-09T23:42:37.756Z,11.50
2018-06-09T23:47:41.105Z,11.70
2018-06-09T23:50:13.764Z,11.90
2018-06-09T23:52:46.310Z,12.00
2018-06-09T23:55:19.406Z,12.10
2018-06-09T23:57:52.148Z,12.20
